createdAt,value
2017-09-19T00:02:03.085Z,98361.48
2017-09-19T00:04:31.423Z,98362.85
2017-09-19T00:07:00.627Z,98356.16
2017-09-19T00:09:31.012Z,98353.58
2017-09-19T00:12:01.238Z,98350.92
2017-09-19T00:14:30.514Z,98354.80
2017-09-19T00:17:02.614Z,98357.66
2017-09-19T00:19:32.805Z,98364.63
2017-09-19T00:22:04.273Z,98368.70
2017-09-19T00:24:35.261Z,98364.07
2017-09-19T00:27:07.460Z,98359.84
2017-09-19T00:29:35.909Z,98355.86
2017-09-19T00:32:04.240Z,98360.89
2017-09-19T00:34:36.329Z,98360.72
2017-09-19T00:37:05.612Z,98363.75
2017-09-19T00:39:34.011Z,98359.48
2017-09-19T00:42:14.928Z,98361.87
2017-09-19T00:44:46.758Z,98358.33
2017-09-19T00:47:15.098Z,98361.52
2017-09-19T00:50:11.558Z,98360.59
2017-09-19T00:52:41.573Z,98365.06
2017-09-19T00:55:12.356Z,98356.73
2017-09-19T00:57:40.900Z,98361.06
2017-09-19T01:00:11.099Z,98359.55
2017-09-19T01:02:40.415Z,98361.59
2017-09-19T01:05:09.701Z,98355.18
2017-09-19T01:07:38.098Z,98353.61
2017-09-19T01:10:08.620Z,98354.05
2017-09-19T01:12:41.928Z,98355.19
2017-09-19T01:15:10.270Z,98350.78
2017-09-19T01:17:38.661Z,98345.81
2017-09-19T01:20:07.983Z,98353.92
2017-09-19T01:22:37.071Z,98347.85
2017-09-19T01:25:06.850Z,98349.48
2017-09-19T01:27:36.501Z,98341.78
2017-09-19T01:30:09.677Z,98339.28
2017-09-19T01:32:38.185Z,98334.03
2017-09-19T01:35:11.540Z,98337.52
2017-09-19T01:37:43.256Z,98330.63
2017-09-19T01:40:19.086Z,98327.12
2017-09-19T01:42:47.402Z,98330.08
2017-09-19T01:45:15.735Z,98321.70
2017-09-19T01:48:12.506Z,98323.70
2017-09-19T01:50:40.833Z,98314.63
2017-09-19T01:53:13.445Z,98314.13
2017-09-19T01:55:46.110Z,98315.20
2017-09-19T01:58:15.725Z,98312.50
2017-09-19T02:00:44.115Z,98308.28
2017-09-19T02:03:22.463Z,98308.23
2017-09-19T02:05:51.924Z,98308.84
2017-09-19T02:08:20.289Z,98307.63
2017-09-19T02:10:54.536Z,98299.92
2017-09-19T02:13:29.059Z,98304.38
2017-09-19T02:16:00.342Z,98300.00
2017-09-19T02:18:34.984Z,98304.60
2017-09-19T02:21:08.904Z,98301.27
2017-09-19T02:23:40.687Z,98298.14
2017-09-19T02:26:09.095Z,98300.83
2017-09-19T02:28:42.696Z,98304.11
2017-09-19T02:31:12.036Z,98310.28
2017-09-19T02:33:43.478Z,98308.95
2017-09-19T02:36:14.303Z,98309.59
2017-09-19T02:38:42.646Z,98313.11
2017-09-19T02:41:17.476Z,98310.23
2017-09-19T02:43:47.699Z,98309.08
2017-09-19T02:46:18.260Z,98301.48
2017-09-19T02:48:52.448Z,98305.06
2017-09-19T02:51:20.845Z,98305.48
2017-09-19T02:53:51.068Z,98303.21
2017-09-19T02:56:22.485Z,98301.70
2017-09-19T02:59:07.401Z,98301.92
2017-09-19T03:01:39.350Z,98300.77
2017-09-19T03:04:08.849Z,98293.63
2017-09-19T03:06:43.026Z,98293.13
2017-09-19T03:09:11.466Z,98293.41
2017-09-19T03:11:47.449Z,98286.16
2017-09-19T03:14:22.608Z,98289.30
2017-09-19T03:16:52.215Z,98289.30
2017-09-19T03:19:20.609Z,98288.73
2017-09-19T03:21:49.932Z,98293.77
2017-09-19T03:24:22.623Z,98292.52
2017-09-19T03:26:51.924Z,98291.11
2017-09-19T03:29:27.645Z,98295.78
2017-09-19T03:31:56.951Z,98295.81
2017-09-19T03:34:25.361Z,98295.25
2017-09-19T03:37:01.083Z,98299.71
2017-09-19T03:39:29.764Z,98297.69
2017-09-19T03:41:58.174Z,98293.45
2017-09-19T03:44:27.272Z,98296.94
2017-09-19T03:46:56.488Z,98300.65
2017-09-19T03:49:28.232Z,98295.17
2017-09-19T03:52:04.087Z,98292.20
2017-09-19T03:54:34.506Z,98290.12
2017-09-19T03:57:03.972Z,98295.47
2017-09-19T03:59:32.491Z,98301.16
2017-09-19T04:02:00.875Z,98306.11
2017-09-19T04:04:31.433Z,98302.90
2017-09-19T04:06:59.788Z,98308.78
2017-09-19T04:09:30.796Z,98316.47
2017-09-19T04:12:00.236Z,98308.74
2017-09-19T04:14:29.772Z,98316.27
2017-09-19T04:16:58.223Z,98313.66
2017-09-19T04:19:27.520Z,98314.92
2017-09-19T04:21:56.860Z,98314.16
2017-09-19T04:24:31.007Z,98313.83
2017-09-19T04:26:59.446Z,98314.60
2017-09-19T04:29:28.717Z,98320.66
2017-09-19T04:31:58.441Z,98315.83
2017-09-19T04:34:28.562Z,98314.36
2017-09-19T04:36:59.074Z,98322.44
2017-09-19T04:39:28.397Z,98316.48
2017-09-19T04:42:01.073Z,98321.36
2017-09-19T04:44:32.213Z,98321.64
2017-09-19T04:47:02.464Z,98322.26
2017-09-19T04:49:39.373Z,98322.87
2017-09-19T04:52:10.675Z,98318.70
2017-09-19T04:54:39.888Z,98321.59
2017-09-19T04:57:08.232Z,98328.22
2017-09-19T04:59:37.570Z,98330.62
2017-09-19T05:02:05.925Z,98332.31
2017-09-19T05:04:34.344Z,98338.59
2017-09-19T05:07:02.679Z,98337.89
2017-09-19T05:09:31.012Z,98333.68
2017-09-19T05:11:59.341Z,98343.69
2017-09-19T05:14:27.661Z,98339.52
2017-09-19T05:16:55.997Z,98337.64
2017-09-19T05:19:24.292Z,98344.59
2017-09-19T05:21:53.384Z,98347.83
2017-09-19T05:24:22.061Z,98344.39
2017-09-19T05:26:50.412Z,98349.32
2017-09-19T05:29:18.726Z,98343.27
2017-09-19T05:31:47.823Z,98344.03
2017-09-19T05:34:16.936Z,98350.78
2017-09-19T05:36:45.251Z,98352.73
2017-09-19T05:39:13.588Z,98353.06
2017-09-19T05:41:41.913Z,98358.83
2017-09-19T05:44:10.248Z,98360.59
2017-09-19T05:46:39.349Z,98354.95
2017-09-19T05:49:07.658Z,98356.59
2017-09-19T05:51:35.996Z,98359.41
2017-09-19T05:54:05.094Z,98356.35
2017-09-19T05:56:33.419Z,98355.73
2017-09-19T05:59:01.756Z,98361.22
2017-09-19T06:01:30.853Z,98366.86
2017-09-19T06:03:59.178Z,98361.55
2017-09-19T06:06:27.522Z,98362.86
2017-09-19T06:12:09.220Z,98372.46
2017-09-19T06:14:38.391Z,98368.30
2017-09-19T06:17:06.738Z,98366.28
2017-09-19T06:19:35.590Z,98369.31
2017-09-19T06:22:03.919Z,98367.23
2017-09-19T06:24:32.246Z,98367.35
2017-09-19T06:27:01.343Z,98373.48
2017-09-19T06:29:30.432Z,98368.52
2017-09-19T06:31:58.775Z,98373.30
2017-09-19T06:34:27.092Z,98370.28
2017-09-19T06:36:55.426Z,98374.25
2017-09-19T06:39:23.760Z,98369.17
2017-09-19T06:41:52.873Z,98370.06
2017-09-19T06:44:21.201Z,98370.71
2017-09-19T06:46:50.316Z,98367.78
2017-09-19T06:49:18.660Z,98369.40
2017-09-19T06:51:47.003Z,98377.53
2017-09-19T06:54:15.377Z,98368.58
2017-09-19T06:56:43.690Z,98371.90
2017-09-19T06:59:12.036Z,98370.91
2017-09-19T07:01:40.385Z,98380.02
2017-09-19T07:04:08.732Z,98376.65
2017-09-19T07:06:37.085Z,98378.16
2017-09-19T07:09:05.482Z,98377.58
2017-09-19T07:11:33.804Z,98383.55
2017-09-19T07:14:02.164Z,98388.99
2017-09-19T07:16:30.514Z,98391.88
2017-09-19T07:18:58.846Z,98393.33
2017-09-19T07:21:27.211Z,98388.52
2017-09-19T07:23:55.555Z,98392.56
2017-09-19T07:26:23.889Z,98389.03
2017-09-19T07:28:52.973Z,98395.41
2017-09-19T07:31:21.316Z,98392.55
2017-09-19T07:33:49.645Z,98388.61
2017-09-19T07:36:18.049Z,98391.76
2017-09-19T07:38:46.392Z,98392.10
2017-09-19T07:41:14.742Z,98396.73
2017-09-19T07:43:43.077Z,98405.44
2017-09-19T07:46:11.403Z,98398.70
2017-09-19T07:48:39.754Z,98402.34
2017-09-19T07:51:08.076Z,98404.06
2017-09-19T07:53:36.441Z,98406.39
2017-09-19T07:56:04.768Z,98401.78
2017-09-19T07:58:33.874Z,98399.92
2017-09-19T08:01:02.248Z,98406.32
2017-09-19T08:03:30.563Z,98402.88
2017-09-19T08:05:58.908Z,98401.66
2017-09-19T08:08:28.015Z,98396.03
2017-09-19T08:10:56.355Z,98399.78
2017-09-19T08:13:24.717Z,98401.66
2017-09-19T08:15:53.073Z,98396.30
2017-09-19T08:18:21.443Z,98398.48
2017-09-19T08:20:49.786Z,98400.36
2017-09-19T08:23:18.903Z,98402.03
2017-09-19T08:25:47.242Z,98406.83
2017-09-19T08:28:15.581Z,98403.30
2017-09-19T08:30:43.921Z,98403.72
2017-09-19T08:33:13.065Z,98410.40
2017-09-19T08:35:41.405Z,98408.77
2017-09-19T08:38:10.492Z,98411.50
2017-09-19T08:40:38.842Z,98414.65
2017-09-19T08:43:07.169Z,98414.45
2017-09-19T08:45:35.509Z,98411.62
2017-09-19T08:48:03.818Z,98413.06
2017-09-19T08:50:32.909Z,98414.48
2017-09-19T08:53:01.269Z,98420.36
2017-09-19T08:55:29.603Z,98418.06
2017-09-19T08:57:57.952Z,98424.83
2017-09-19T09:00:27.044Z,98423.53
2017-09-19T09:02:56.147Z,98428.78
2017-09-19T09:05:24.455Z,98426.97
2017-09-19T09:07:52.789Z,98420.72
2017-09-19T09:10:21.136Z,98426.79
2017-09-19T09:12:49.445Z,98422.13
2017-09-19T09:15:17.779Z,98424.77
2017-09-19T09:17:46.100Z,98424.59
2017-09-19T09:20:14.455Z,98425.69
2017-09-19T09:22:42.806Z,98422.25
2017-09-19T09:25:11.118Z,98423.67
2017-09-19T09:27:39.462Z,98416.70
2017-09-19T09:30:07.796Z,98422.86
2017-09-19T09:32:36.134Z,98419.42
2017-09-19T09:35:05.238Z,98422.97
2017-09-19T09:37:33.545Z,98426.52
2017-09-19T09:40:01.884Z,98421.57
2017-09-19T09:42:30.208Z,98419.94
2017-09-19T09:44:58.547Z,98418.22
2017-09-19T09:47:26.887Z,98423.20
2017-09-19T09:49:55.975Z,98417.54
2017-09-19T09:52:25.106Z,98422.33
2017-09-19T09:54:53.445Z,98418.98
2017-09-19T09:57:22.568Z,98422.02
2017-09-19T09:59:57.032Z,98414.53
2017-09-19T10:02:25.381Z,98420.92
2017-09-19T10:04:53.742Z,98415.75
2017-09-19T10:07:22.855Z,98419.30
2017-09-19T10:09:51.217Z,98412.81
2017-09-19T10:12:19.543Z,98404.82
2017-09-19T10:14:47.946Z,98408.27
2017-09-19T10:17:16.304Z,98403.81
2017-09-19T10:19:44.623Z,98404.72
2017-09-19T10:22:13.744Z,98400.77
2017-09-19T10:24:42.066Z,98397.53
2017-09-19T10:27:10.887Z,98390.42
2017-09-19T10:29:39.216Z,98398.29
2017-09-19T10:32:07.534Z,98395.95
2017-09-19T10:34:36.535Z,98404.16
2017-09-19T10:37:04.860Z,98398.59
2017-09-19T10:39:33.203Z,98402.03
2017-09-19T10:42:02.298Z,98404.67
2017-09-19T10:44:30.637Z,98408.82
2017-09-19T10:46:58.983Z,98412.08
2017-09-19T10:49:28.153Z,98407.73
2017-09-19T10:51:56.505Z,98410.97
2017-09-19T10:54:24.829Z,98403.96
2017-09-19T10:56:53.164Z,98405.56
2017-09-19T10:59:21.493Z,98397.75
2017-09-19T11:01:49.841Z,98401.78
2017-09-19T11:04:18.178Z,98413.64
2017-09-19T11:06:46.555Z,98424.48
2017-09-19T11:09:14.902Z,98421.70
2017-09-19T11:11:43.984Z,98425.77
2017-09-19T11:14:13.084Z,98429.81
2017-09-19T11:16:41.407Z,98424.30
2017-09-19T11:19:10.834Z,98416.95
2017-09-19T11:21:39.166Z,98421.16
2017-09-19T11:24:07.482Z,98424.52
2017-09-19T11:26:35.817Z,98422.70
2017-09-19T11:29:04.908Z,98423.11
2017-09-19T11:31:33.242Z,98422.14
2017-09-19T11:34:01.586Z,98412.11
2017-09-19T11:36:29.951Z,98419.72
2017-09-19T11:38:59.056Z,98419.87
2017-09-19T11:41:27.383Z,98410.74
2017-09-19T11:43:55.888Z,98409.20
2017-09-19T11:46:24.216Z,98414.34
2017-09-19T11:48:52.554Z,98421.00
2017-09-19T11:51:20.881Z,98405.22
2017-09-19T11:53:49.614Z,98407.27
2017-09-19T11:56:17.944Z,98409.61
2017-09-19T11:58:46.259Z,98405.34
2017-09-19T12:01:14.589Z,98412.38
2017-09-19T12:03:42.895Z,98413.62
2017-09-19T12:06:11.226Z,98413.54
2017-09-19T12:08:39.552Z,98416.19
2017-09-19T12:11:07.932Z,98417.20
2017-09-19T12:13:36.283Z,98411.50
2017-09-19T12:16:05.578Z,98410.61
2017-09-19T12:18:33.915Z,98406.27
2017-09-19T12:21:02.263Z,98401.17
2017-09-19T12:23:30.608Z,98405.59
2017-09-19T12:25:59.729Z,98405.75
2017-09-19T12:28:28.070Z,98401.82
2017-09-19T12:30:57.156Z,98404.56
2017-09-19T12:33:25.484Z,98395.26
2017-09-19T12:35:53.829Z,98394.86
2017-09-19T12:38:22.921Z,98394.55
2017-09-19T12:40:51.266Z,98395.19
2017-09-19T12:43:19.616Z,98401.57
2017-09-19T12:45:48.388Z,98393.31
2017-09-19T12:48:16.711Z,98404.05
2017-09-19T12:50:45.049Z,98399.98
2017-09-19T12:53:13.383Z,98401.02
2017-09-19T12:55:41.725Z,98398.55
2017-09-19T12:58:10.071Z,98405.48
2017-09-19T13:00:38.420Z,98401.49
2017-09-19T13:03:07.135Z,98394.72
2017-09-19T13:05:36.241Z,98386.59
2017-09-19T13:08:04.564Z,98396.11
2017-09-19T13:10:32.896Z,98399.89
2017-09-19T13:13:02.042Z,98399.30
2017-09-19T13:15:30.401Z,98406.88
2017-09-19T13:18:00.638Z,98408.72
2017-09-19T13:20:29.001Z,98415.38
2017-09-19T13:22:57.365Z,98415.66
2017-09-19T13:25:25.686Z,98418.01
2017-09-19T13:27:54.028Z,98420.68
2017-09-19T13:30:22.340Z,98433.59
2017-09-19T13:33:08.206Z,98426.25
2017-09-19T13:35:37.694Z,98423.73
2017-09-19T13:38:06.118Z,98421.88
2017-09-19T13:40:35.367Z,98431.17
2017-09-19T13:43:04.765Z,98431.63
2017-09-19T13:45:33.083Z,98434.95
2017-09-19T13:48:01.417Z,98440.95
2017-09-19T13:50:32.596Z,98437.48
2017-09-19T13:53:01.644Z,98436.42
2017-09-19T13:55:30.008Z,98433.36
2017-09-19T13:57:58.332Z,98433.93
2017-09-19T14:00:28.956Z,98432.78
2017-09-19T14:03:01.827Z,98427.78
2017-09-19T14:05:30.485Z,98433.55
2017-09-19T14:08:00.752Z,98429.23
2017-09-19T14:10:29.878Z,98437.34
2017-09-19T14:12:59.711Z,98436.95
2017-09-19T14:15:28.034Z,98439.14
2017-09-19T14:17:58.271Z,98436.16
2017-09-19T14:20:29.391Z,98437.61
2017-09-19T14:22:58.201Z,98439.33
2017-09-19T14:25:27.703Z,98438.62
2017-09-19T14:27:56.997Z,98440.20
2017-09-19T14:30:26.327Z,98441.02
2017-09-19T14:32:55.616Z,98438.71
2017-09-19T14:35:25.811Z,98447.63
2017-09-19T14:37:54.209Z,98443.79
2017-09-19T14:40:24.452Z,98438.89
2017-09-19T14:42:52.813Z,98437.70
2017-09-19T14:45:21.207Z,98434.34
2017-09-19T14:47:49.587Z,98440.18
2017-09-19T14:50:18.867Z,98443.05
2017-09-19T14:52:47.293Z,98446.30
2017-09-19T14:55:15.631Z,98441.02
2017-09-19T14:57:45.254Z,98441.22
2017-09-19T15:00:17.931Z,98446.95
2017-09-19T15:02:47.513Z,98444.05
2017-09-19T15:05:16.629Z,98453.20
2017-09-19T15:07:46.752Z,98457.98
2017-09-19T15:10:16.071Z,98459.47
2017-09-19T15:12:44.436Z,98461.86
2017-09-19T15:15:12.819Z,98464.80
2017-09-19T15:17:42.103Z,98467.88
2017-09-19T15:20:10.536Z,98472.24
2017-09-19T15:22:40.298Z,98477.62
2017-09-19T15:25:08.824Z,98478.88
2017-09-19T15:27:37.202Z,98483.95
2017-09-19T15:30:05.557Z,98485.27
2017-09-19T15:32:34.887Z,98485.27
2017-09-19T15:35:03.243Z,98486.94
2017-09-19T15:37:32.563Z,98487.86
2017-09-19T15:40:00.921Z,98486.63
2017-09-19T15:42:31.166Z,98489.58
2017-09-19T15:44:59.519Z,98493.03
2017-09-19T15:47:30.949Z,98496.94
2017-09-19T15:49:59.361Z,98491.72
2017-09-19T15:52:28.673Z,98494.08
2017-09-19T15:54:57.065Z,98489.52
2017-09-19T15:57:25.403Z,98491.30
2017-09-19T15:59:53.815Z,98492.04
2017-09-19T16:02:22.178Z,98496.09
2017-09-19T16:04:56.198Z,98498.30
2017-09-19T16:07:27.394Z,98499.73
2017-09-19T16:09:55.928Z,98499.98
2017-09-19T16:12:25.919Z,98503.68
2017-09-19T16:14:56.357Z,98502.47
2017-09-19T16:17:28.749Z,98507.73
2017-09-19T16:19:59.889Z,98512.61
2017-09-19T16:22:29.521Z,98510.36
2017-09-19T16:25:03.449Z,98513.65
2017-09-19T16:27:33.971Z,98518.52
2017-09-19T16:30:02.335Z,98519.45
2017-09-19T16:32:30.750Z,98520.74
2017-09-19T16:34:59.115Z,98526.00
2017-09-19T16:37:28.374Z,98524.82
2017-09-19T16:40:02.304Z,98530.06
2017-09-19T16:42:31.553Z,98539.19
2017-09-19T16:45:01.287Z,98540.00
2017-09-19T16:47:30.047Z,98539.99
2017-09-19T16:49:59.906Z,98541.62
2017-09-19T16:52:29.166Z,98547.17
2017-09-19T16:54:57.487Z,98549.71
2017-09-19T16:57:28.950Z,98554.98
2017-09-19T16:59:57.314Z,98561.83
2017-09-19T17:02:28.508Z,98566.06
2017-09-19T17:04:56.866Z,98565.73
2017-09-19T17:07:25.254Z,98574.06
2017-09-19T17:09:55.757Z,98579.91
2017-09-19T17:12:25.360Z,98580.11
2017-09-19T17:14:54.674Z,98582.25
2017-09-19T17:17:23.049Z,98584.16
2017-09-19T17:19:52.385Z,98583.62
2017-09-19T17:22:20.703Z,98579.12
2017-09-19T17:24:49.818Z,98581.31
2017-09-19T17:27:20.872Z,98584.08
2017-09-19T17:29:50.868Z,98584.66
2017-09-19T17:32:25.821Z,98592.72
2017-09-19T17:35:01.370Z,98596.38
2017-09-19T17:37:33.809Z,98601.98
2017-09-19T17:40:03.379Z,98606.33
2017-09-19T17:42:32.482Z,98607.56
2017-09-19T17:45:01.037Z,98603.86
2017-09-19T17:47:29.431Z,98606.37
2017-09-19T17:49:57.779Z,98608.72
2017-09-19T17:52:27.164Z,98612.38
2017-09-19T17:54:57.687Z,98611.59
2017-09-19T17:57:28.422Z,98617.76
2017-09-19T18:00:03.551Z,98621.09
2017-09-19T18:02:32.952Z,98626.22
2017-09-19T18:05:01.322Z,98624.28
2017-09-19T18:07:30.597Z,98621.09
2017-09-19T18:09:58.991Z,98635.27
2017-09-19T18:12:27.367Z,98633.48
2017-09-19T18:14:55.731Z,98634.69
2017-09-19T18:17:25.074Z,98644.78
2017-09-19T18:19:55.962Z,98647.62
2017-09-19T18:22:24.645Z,98653.13
2017-09-19T18:24:55.094Z,98653.09
2017-09-19T18:27:23.464Z,98655.24
2017-09-19T18:29:51.843Z,98661.05
2017-09-19T18:32:21.192Z,98664.78
2017-09-19T18:34:49.557Z,98664.04
2017-09-19T18:37:18.464Z,98670.16
2017-09-19T18:39:48.447Z,98671.60
2017-09-19T18:42:20.037Z,98675.98
2017-09-19T18:44:49.706Z,98679.62
2017-09-19T18:47:18.894Z,98677.30
2017-09-19T18:49:48.943Z,98684.19
2017-09-19T18:52:17.388Z,98683.55
2017-09-19T18:54:46.737Z,98686.52
2017-09-19T18:57:15.116Z,98689.80
2017-09-19T18:59:48.680Z,98694.91
2017-09-19T19:02:18.009Z,98687.06
2017-09-19T19:04:48.561Z,98691.14
2017-09-19T19:07:22.752Z,98691.50
2017-09-19T19:09:54.864Z,98695.52
2017-09-19T19:12:24.512Z,98692.66
2017-09-19T19:14:53.719Z,98698.20
2017-09-19T19:17:22.181Z,98695.83
2017-09-19T19:19:52.384Z,98699.33
2017-09-19T19:22:21.958Z,98696.39
2017-09-19T19:24:51.637Z,98704.89
2017-09-19T19:27:20.544Z,98706.31
2017-09-19T19:29:49.578Z,98711.67
2017-09-19T19:32:18.600Z,98715.81
2017-09-19T19:34:48.290Z,98713.11
2017-09-19T19:37:19.363Z,98710.89
2017-09-19T19:40:00.532Z,98717.50
2017-09-19T19:42:30.254Z,98717.78
2017-09-19T19:44:59.978Z,98729.63
2017-09-19T19:47:28.794Z,98726.64
2017-09-19T19:49:57.216Z,98726.92
2017-09-19T19:52:25.637Z,98734.55
2017-09-19T19:54:54.008Z,98736.31
2017-09-19T19:57:23.337Z,98737.63
2017-09-19T19:59:51.948Z,98740.61
2017-09-19T20:02:23.998Z,98737.63
2017-09-19T20:04:52.363Z,98739.30
2017-09-19T20:07:21.662Z,98743.32
2017-09-19T20:09:50.373Z,98744.53
2017-09-19T20:12:18.770Z,98749.38
2017-09-19T20:14:54.465Z,98749.59
2017-09-19T20:17:22.833Z,98748.00
2017-09-19T20:19:53.087Z,98748.16
2017-09-19T20:22:23.701Z,98752.00
2017-09-19T20:24:53.230Z,98757.34
2017-09-19T20:27:25.929Z,98753.48
2017-09-19T20:29:54.685Z,98750.78
2017-09-19T20:32:25.131Z,98754.85
2017-09-19T20:34:57.806Z,98764.73
2017-09-19T20:37:26.440Z,98762.72
2017-09-19T20:39:54.858Z,98765.80
2017-09-19T20:42:23.244Z,98765.75
2017-09-19T20:44:51.664Z,98762.74
2017-09-19T20:47:20.277Z,98776.14
2017-09-19T20:49:49.627Z,98773.47
2017-09-19T20:52:18.024Z,98767.35
2017-09-19T20:54:46.420Z,98773.13
2017-09-19T20:57:16.277Z,98773.65
2017-09-19T20:59:47.425Z,98781.06
2017-09-19T21:02:15.962Z,98781.14
2017-09-19T21:04:50.969Z,98782.14
2017-09-19T21:07:25.774Z,98785.89
2017-09-19T21:10:03.598Z,98789.02
2017-09-19T21:12:37.561Z,98792.51
2017-09-19T21:15:12.291Z,98789.64
2017-09-19T21:17:47.122Z,98791.43
2017-09-19T21:20:14.981Z,98791.58
2017-09-19T21:22:51.771Z,98790.17
2017-09-19T21:25:21.907Z,98788.36
2017-09-19T21:27:51.203Z,98784.11
2017-09-19T21:30:22.618Z,98789.41
2017-09-19T21:32:51.029Z,98791.00
2017-09-19T21:35:20.360Z,98791.19
2017-09-19T21:37:50.895Z,98792.30
2017-09-19T21:40:20.155Z,98794.34
2017-09-19T21:42:49.542Z,98796.16
2017-09-19T21:45:17.865Z,98797.38
2017-09-19T21:47:46.650Z,98795.74
2017-09-19T21:50:19.535Z,98790.38
2017-09-19T21:52:50.022Z,98792.07
2017-09-19T21:55:20.316Z,98787.89
2017-09-19T21:57:49.574Z,98781.84
2017-09-19T22:00:25.024Z,98786.10
2017-09-19T22:02:57.409Z,98788.30
2017-09-19T22:05:26.720Z,98791.73
2017-09-19T22:07:57.241Z,98786.09
2017-09-19T22:10:27.202Z,98785.95
2017-09-19T22:12:55.533Z,98784.87
2017-09-19T22:15:29.139Z,98778.83
2017-09-19T22:17:58.425Z,98779.16
2017-09-19T22:20:35.089Z,98783.38
2017-09-19T22:23:03.464Z,98780.20
2017-09-19T22:25:32.793Z,98790.25
2017-09-19T22:28:02.123Z,98791.66
2017-09-19T22:30:30.480Z,98783.00
2017-09-19T22:32:59.795Z,98784.30
2017-09-19T22:35:31.522Z,98788.00
2017-09-19T22:38:01.131Z,98789.30
2017-09-19T22:40:36.551Z,98784.72
2017-09-19T22:43:05.274Z,98784.72
2017-09-19T22:45:33.654Z,98781.23
2017-09-19T22:48:04.797Z,98782.91
2017-09-19T22:50:37.793Z,98784.64
2017-09-19T22:53:07.989Z,98795.24
2017-09-19T22:55:36.398Z,98783.75
2017-09-19T22:58:09.975Z,98784.89
2017-09-19T23:00:38.644Z,98790.93
2017-09-19T23:03:07.036Z,98790.77
2017-09-19T23:05:36.339Z,98788.38
2017-09-19T23:08:10.886Z,98792.95
2017-09-19T23:10:47.220Z,98795.41
2017-09-19T23:13:17.480Z,98803.41
2017-09-19T23:15:46.811Z,98805.59
2017-09-19T23:18:17.328Z,98804.69
2017-09-19T23:20:45.670Z,98813.01
2017-09-19T23:23:14.074Z,98805.91
2017-09-19T23:25:43.384Z,98803.41
2017-09-19T23:28:11.749Z,98807.66
2017-09-19T23:30:42.901Z,98809.38
2017-09-19T23:33:12.236Z,98809.93
2017-09-19T23:35:42.986Z,98809.77
2017-09-19T23:38:17.253Z,98815.72
2017-09-19T23:40:46.567Z,98818.72
2017-09-19T23:43:14.918Z,98814.64
2017-09-19T23:45:43.324Z,98821.00
2017-09-19T23:48:12.620Z,98813.06
2017-09-19T23:50:41.991Z,98814.78
2017-09-19T23:53:10.353Z,98813.73
2017-09-19T23:55:38.673Z,98812.17
2017-09-19T23:58:07.075Z,98812.73
